sensor_id;sensor_type;location;lat;lon;timestamp;P1;durP1;ratioP1;P2;durP2;ratioP2
19285;SDS011;9776;50.798;6.430;2023-05-29T00:02:26;7.63;;;3.20;;
19285;SDS011;9776;50.798;6.430;2023-05-29T00:04:52;7.95;;;3.20;;
19285;SDS011;9776;50.798;6.430;2023-05-29T00:07:19;7.93;;;3.33;;
19285;SDS011;9776;50.798;6.430;2023-05-29T00:09:46;7.63;;;2.90;;
19285;SDS011;9776;50.798;6.430;2023-05-29T00:12:14;6.68;;;2.92;;
19285;SDS011;9776;50.798;6.430;2023-05-29T00:14:40;6.00;;;2.97;;
19285;SDS011;9776;50.798;6.430;2023-05-29T00:17:07;5.93;;;2.95;;
19285;SDS011;9776;50.798;6.430;2023-05-29T00:19:34;9.25;;;2.88;;
19285;SDS011;9776;50.798;6.430;2023-05-29T00:22:01;8.77;;;3.13;;
19285;SDS011;9776;50.798;6.430;2023-05-29T00:24:27;5.25;;;2.50;;
19285;SDS011;9776;50.798;6.430;2023-05-29T00:26:54;5.32;;;2.50;;
19285;SDS011;9776;50.798;6.430;2023-05-29T00:29:22;5.03;;;2.72;;
19285;SDS011;9776;50.798;6.430;2023-05-29T00:31:50;4.47;;;2.80;;
19285;SDS011;9776;50.798;6.430;2023-05-29T00:34:18;7.32;;;2.72;;
19285;SDS011;9776;50.798;6.430;2023-05-29T00:36:45;6.88;;;2.70;;
19285;SDS011;9776;50.798;6.430;2023-05-29T00:39:12;6.53;;;2.50;;
19285;SDS011;9776;50.798;6.430;2023-05-29T00:41:39;5.57;;;2.60;;
19285;SDS011;9776;50.798;6.430;2023-05-29T00:44:06;6.25;;;2.53;;
19285;SDS011;9776;50.798;6.430;2023-05-29T00:46:34;7.07;;;2.45;;
19285;SDS011;9776;50.798;6.430;2023-05-29T00:49:01;7.25;;;2.78;;
19285;SDS011;9776;50.798;6.430;2023-05-29T00:51:28;6.70;;;2.42;;
19285;SDS011;9776;50.798;6.430;2023-05-29T00:53:57;6.85;;;2.60;;
19285;SDS011;9776;50.798;6.430;2023-05-29T00:56:25;5.70;;;2.40;;
19285;SDS011;9776;50.798;6.430;2023-05-29T00:58:52;4.60;;;2.78;;
19285;SDS011;9776;50.798;6.430;2023-05-29T01:01:19;4.32;;;2.40;;
19285;SDS011;9776;50.798;6.430;2023-05-29T01:03:48;4.47;;;2.35;;
19285;SDS011;9776;50.798;6.430;2023-05-29T01:06:15;8.63;;;2.70;;
19285;SDS011;9776;50.798;6.430;2023-05-29T01:08:42;5.63;;;2.60;;
19285;SDS011;9776;50.798;6.430;2023-05-29T01:11:10;3.60;;;2.28;;
19285;SDS011;9776;50.798;6.430;2023-05-29T01:13:42;6.93;;;2.65;;
19285;SDS011;9776;50.798;6.430;2023-05-29T01:16:12;5.75;;;2.40;;
19285;SDS011;9776;50.798;6.430;2023-05-29T01:18:50;5.88;;;2.10;;
19285;SDS011;9776;50.798;6.430;2023-05-29T01:21:22;5.40;;;2.58;;
19285;SDS011;9776;50.798;6.430;2023-05-29T01:23:57;4.10;;;2.00;;
19285;SDS011;9776;50.798;6.430;2023-05-29T01:26:51;7.90;;;2.50;;
19285;SDS011;9776;50.798;6.430;2023-05-29T01:29:21;6.13;;;2.63;;
19285;SDS011;9776;50.798;6.430;2023-05-29T01:31:50;5.47;;;2.08;;
19285;SDS011;9776;50.798;6.430;2023-05-29T01:34:17;4.70;;;2.03;;
19285;SDS011;9776;50.798;6.430;2023-05-29T01:36:44;7.95;;;2.50;;
19285;SDS011;9776;50.798;6.430;2023-05-29T01:39:11;6.78;;;2.30;;
19285;SDS011;9776;50.798;6.430;2023-05-29T01:41:39;6.40;;;2.30;;
19285;SDS011;9776;50.798;6.430;2023-05-29T01:44:08;4.55;;;2.20;;
19285;SDS011;9776;50.798;6.430;2023-05-29T01:46:35;4.70;;;2.40;;
19285;SDS011;9776;50.798;6.430;2023-05-29T01:49:04;4.50;;;2.00;;
19285;SDS011;9776;50.798;6.430;2023-05-29T01:51:31;6.57;;;2.53;;
19285;SDS011;9776;50.798;6.430;2023-05-29T01:54:00;6.60;;;2.45;;
19285;SDS011;9776;50.798;6.430;2023-05-29T01:56:27;4.53;;;2.35;;
19285;SDS011;9776;50.798;6.430;2023-05-29T01:58:55;10.05;;;2.78;;
19285;SDS011;9776;50.798;6.430;2023-05-29T02:01:24;6.25;;;2.42;;
19285;SDS011;9776;50.798;6.430;2023-05-29T02:03:51;8.43;;;2.47;;
19285;SDS011;9776;50.798;6.430;2023-05-29T02:06:18;5.15;;;2.22;;
19285;SDS011;9776;50.798;6.430;2023-05-29T02:08:45;5.00;;;2.38;;
19285;SDS011;9776;50.798;6.430;2023-05-29T02:11:12;7.60;;;2.17;;
19285;SDS011;9776;50.798;6.430;2023-05-29T02:13:39;9.52;;;2.58;;
19285;SDS011;9776;50.798;6.430;2023-05-29T02:16:05;5.07;;;2.35;;
19285;SDS011;9776;50.798;6.430;2023-05-29T02:18:33;4.55;;;2.30;;
19285;SDS011;9776;50.798;6.430;2023-05-29T02:21:00;5.10;;;2.20;;
19285;SDS011;9776;50.798;6.430;2023-05-29T02:23:27;5.47;;;2.60;;
19285;SDS011;9776;50.798;6.430;2023-05-29T02:25:53;6.03;;;2.30;;
19285;SDS011;9776;50.798;6.430;2023-05-29T02:28:21;5.80;;;2.38;;
19285;SDS011;9776;50.798;6.430;2023-05-29T02:30:47;7.53;;;2.22;;
19285;SDS011;9776;50.798;6.430;2023-05-29T02:33:14;4.05;;;2.13;;
19285;SDS011;9776;50.798;6.430;2023-05-29T02:35:42;5.32;;;2.25;;
19285;SDS011;9776;50.798;6.430;2023-05-29T02:38:08;5.22;;;2.10;;
19285;SDS011;9776;50.798;6.430;2023-05-29T02:40:35;3.50;;;1.98;;
19285;SDS011;9776;50.798;6.430;2023-05-29T02:43:02;5.95;;;2.58;;
19285;SDS011;9776;50.798;6.430;2023-05-29T02:45:29;3.70;;;2.35;;
19285;SDS011;9776;50.798;6.430;2023-05-29T02:47:55;7.65;;;2.35;;
19285;SDS011;9776;50.798;6.430;2023-05-29T02:50:22;5.65;;;2.20;;
19285;SDS011;9776;50.798;6.430;2023-05-29T02:52:50;5.50;;;2.25;;
19285;SDS011;9776;50.798;6.430;2023-05-29T02:55:17;7.93;;;2.50;;
19285;SDS011;9776;50.798;6.430;2023-05-29T02:57:44;4.80;;;2.47;;
19285;SDS011;9776;50.798;6.430;2023-05-29T03:00:11;5.85;;;2.38;;
19285;SDS011;9776;50.798;6.430;2023-05-29T03:02:39;5.00;;;2.20;;
19285;SDS011;9776;50.798;6.430;2023-05-29T03:05:06;5.53;;;2.50;;
19285;SDS011;9776;50.798;6.430;2023-05-29T03:07:34;4.53;;;2.25;;
19285;SDS011;9776;50.798;6.430;2023-05-29T03:10:02;5.32;;;2.35;;
19285;SDS011;9776;50.798;6.430;2023-05-29T03:12:30;6.65;;;2.17;;
19285;SDS011;9776;50.798;6.430;2023-05-29T03:14:56;4.55;;;2.30;;
19285;SDS011;9776;50.798;6.430;2023-05-29T03:17:23;5.03;;;2.45;;
19285;SDS011;9776;50.798;6.430;2023-05-29T03:19:50;5.57;;;1.95;;
19285;SDS011;9776;50.798;6.430;2023-05-29T03:22:17;5.07;;;2.15;;
19285;SDS011;9776;50.798;6.430;2023-05-29T03:24:44;3.78;;;2.08;;
19285;SDS011;9776;50.798;6.430;2023-05-29T03:27:12;6.13;;;2.22;;
19285;SDS011;9776;50.798;6.430;2023-05-29T03:29:38;6.40;;;2.42;;
19285;SDS011;9776;50.798;6.430;2023-05-29T03:32:06;5.28;;;2.63;;
19285;SDS011;9776;50.798;6.430;2023-05-29T03:34:33;4.82;;;2.35;;
19285;SDS011;9776;50.798;6.430;2023-05-29T03:36:59;5.95;;;2.38;;
19285;SDS011;9776;50.798;6.430;2023-05-29T03:39:27;7.45;;;2.40;;
19285;SDS011;9776;50.798;6.430;2023-05-29T03:41:53;6.45;;;2.50;;
19285;SDS011;9776;50.798;6.430;2023-05-29T03:44:21;5.28;;;2.10;;
19285;SDS011;9776;50.798;6.430;2023-05-29T03:46:48;6.38;;;2.45;;
19285;SDS011;9776;50.798;6.430;2023-05-29T03:49:15;5.32;;;2.28;;
19285;SDS011;9776;50.798;6.430;2023-05-29T03:51:42;4.90;;;2.60;;
19285;SDS011;9776;50.798;6.430;2023-05-29T03:54:08;7.72;;;2.50;;
19285;SDS011;9776;50.798;6.430;2023-05-29T03:56:35;4.68;;;2.58;;
19285;SDS011;9776;50.798;6.430;2023-05-29T03:59:02;9.38;;;2.45;;
19285;SDS011;9776;50.798;6.430;2023-05-29T04:01:30;6.15;;;2.25;;
19285;SDS011;9776;50.798;6.430;2023-05-29T04:03:56;7.50;;;2.60;;
19285;SDS011;9776;50.798;6.430;2023-05-29T04:06:23;6.57;;;2.75;;
19285;SDS011;9776;50.798;6.430;2023-05-29T04:08:50;8.23;;;2.75;;
19285;SDS011;9776;50.798;6.430;2023-05-29T04:11:16;5.15;;;2.25;;
19285;SDS011;9776;50.798;6.430;2023-05-29T04:13:45;6.05;;;2.80;;
19285;SDS011;9776;50.798;6.430;2023-05-29T04:16:12;6.15;;;2.58;;
19285;SDS011;9776;50.798;6.430;2023-05-29T04:18:41;7.03;;;3.10;;
19285;SDS011;9776;50.798;6.430;2023-05-29T04:21:07;5.40;;;2.85;;
19285;SDS011;9776;50.798;6.430;2023-05-29T04:23:35;6.13;;;2.78;;
19285;SDS011;9776;50.798;6.430;2023-05-29T04:26:01;9.20;;;2.70;;
19285;SDS011;9776;50.798;6.430;2023-05-29T04:28:28;7.07;;;2.70;;
19285;SDS011;9776;50.798;6.430;2023-05-29T04:30:55;6.40;;;2.70;;
19285;SDS011;9776;50.798;6.430;2023-05-29T04:33:22;10.02;;;2.88;;
19285;SDS011;9776;50.798;6.430;2023-05-29T04:35:50;5.63;;;2.78;;
19285;SDS011;9776;50.798;6.430;2023-05-29T04:38:17;7.72;;;2.65;;
19285;SDS011;9776;50.798;6.430;2023-05-29T04:40:49;7.20;;;2.60;;
19285;SDS011;9776;50.798;6.430;2023-05-29T04:43:17;6.28;;;2.55;;
19285;SDS011;9776;50.798;6.430;2023-05-29T04:45:44;6.47;;;2.55;;
19285;SDS011;9776;50.798;6.430;2023-05-29T04:48:11;7.97;;;2.53;;
19285;SDS011;9776;50.798;6.430;2023-05-29T04:50:38;7.82;;;2.45;;
19285;SDS011;9776;50.798;6.430;2023-05-29T04:53:06;4.97;;;2.33;;
19285;SDS011;9776;50.798;6.430;2023-05-29T04:55:33;7.90;;;2.00;;
19285;SDS011;9776;50.798;6.430;2023-05-29T04:58:00;6.60;;;2.63;;
19285;SDS011;9776;50.798;6.430;2023-05-29T05:00:26;9.35;;;2.40;;
19285;SDS011;9776;50.798;6.430;2023-05-29T05:02:53;5.68;;;2.00;;
19285;SDS011;9776;50.798;6.430;2023-05-29T05:05:20;5.47;;;2.03;;
19285;SDS011;9776;50.798;6.430;2023-05-29T05:07:47;10.77;;;2.85;;
19285;SDS011;9776;50.798;6.430;2023-05-29T05:10:15;7.97;;;2.30;;
19285;SDS011;9776;50.798;6.430;2023-05-29T05:12:42;8.23;;;2.20;;
19285;SDS011;9776;50.798;6.430;2023-05-29T05:15:09;9.77;;;2.33;;
19285;SDS011;9776;50.798;6.430;2023-05-29T05:17:36;8.45;;;2.33;;
19285;SDS011;9776;50.798;6.430;2023-05-29T05:20:03;5.30;;;1.75;;
19285;SDS011;9776;50.798;6.430;2023-05-29T05:22:31;7.30;;;1.90;;
19285;SDS011;9776;50.798;6.430;2023-05-29T05:24:57;10.13;;;2.10;;
19285;SDS011;9776;50.798;6.430;2023-05-29T05:27:26;10.23;;;1.95;;
19285;SDS011;9776;50.798;6.430;2023-05-29T05:29:52;7.75;;;2.03;;
19285;SDS011;9776;50.798;6.430;2023-05-29T05:32:19;6.68;;;2.10;;
19285;SDS011;9776;50.798;6.430;2023-05-29T05:34:45;8.70;;;2.28;;
19285;SDS011;9776;50.798;6.430;2023-05-29T05:37:12;6.22;;;2.15;;
19285;SDS011;9776;50.798;6.430;2023-05-29T05:39:39;7.07;;;1.92;;
19285;SDS011;9776;50.798;6.430;2023-05-29T05:42:05;5.60;;;2.00;;
19285;SDS011;9776;50.798;6.430;2023-05-29T05:44:33;7.03;;;1.80;;
19285;SDS011;9776;50.798;6.430;2023-05-29T05:47:00;10.50;;;2.00;;
19285;SDS011;9776;50.798;6.430;2023-05-29T05:49:27;7.03;;;2.22;;
19285;SDS011;9776;50.798;6.430;2023-05-29T05:51:54;7.28;;;2.33;;
19285;SDS011;9776;50.798;6.430;2023-05-29T05:54:20;7.82;;;2.00;;
19285;SDS011;9776;50.798;6.430;2023-05-29T05:56:47;7.18;;;2.35;;
19285;SDS011;9776;50.798;6.430;2023-05-29T05:59:13;7.75;;;1.83;;
19285;SDS011;9776;50.798;6.430;2023-05-29T06:01:41;9.25;;;2.17;;
19285;SDS011;9776;50.798;6.430;2023-05-29T06:04:08;9.27;;;2.17;;
19285;SDS011;9776;50.798;6.430;2023-05-29T06:06:35;7.00;;;1.98;;
19285;SDS011;9776;50.798;6.430;2023-05-29T06:09:01;9.52;;;2.00;;
19285;SDS011;9776;50.798;6.430;2023-05-29T06:11:29;7.88;;;1.95;;
19285;SDS011;9776;50.798;6.430;2023-05-29T06:13:56;6.55;;;2.13;;
19285;SDS011;9776;50.798;6.430;2023-05-29T06:16:23;6.95;;;2.20;;
19285;SDS011;9776;50.798;6.430;2023-05-29T06:18:51;7.22;;;1.90;;
19285;SDS011;9776;50.798;6.430;2023-05-29T06:21:18;8.95;;;2.25;;
19285;SDS011;9776;50.798;6.430;2023-05-29T06:23:44;7.65;;;2.45;;
19285;SDS011;9776;50.798;6.430;2023-05-29T06:26:11;9.02;;;2.28;;
19285;SDS011;9776;50.798;6.430;2023-05-29T06:28:38;9.07;;;2.15;;
19285;SDS011;9776;50.798;6.430;2023-05-29T06:31:05;4.18;;;1.92;;
19285;SDS011;9776;50.798;6.430;2023-05-29T06:33:32;10.75;;;2.13;;
19285;SDS011;9776;50.798;6.430;2023-05-29T06:36:00;8.23;;;2.38;;
19285;SDS011;9776;50.798;6.430;2023-05-29T06:38:26;11.05;;;2.40;;
19285;SDS011;9776;50.798;6.430;2023-05-29T06:40:53;9.45;;;2.20;;
19285;SDS011;9776;50.798;6.430;2023-05-29T06:43:20;7.65;;;2.17;;
19285;SDS011;9776;50.798;6.430;2023-05-29T06:45:46;5.97;;;1.90;;
19285;SDS011;9776;50.798;6.430;2023-05-29T06:48:13;7.57;;;1.88;;
19285;SDS011;9776;50.798;6.430;2023-05-29T06:50:40;7.07;;;1.85;;
19285;SDS011;9776;50.798;6.430;2023-05-29T06:53:08;6.88;;;2.20;;
19285;SDS011;9776;50.798;6.430;2023-05-29T06:55:34;8.00;;;2.15;;
19285;SDS011;9776;50.798;6.430;2023-05-29T06:58:01;7.38;;;2.15;;
19285;SDS011;9776;50.798;6.430;2023-05-29T07:00:28;7.82;;;2.30;;
19285;SDS011;9776;50.798;6.430;2023-05-29T07:02:54;6.75;;;1.92;;
19285;SDS011;9776;50.798;6.430;2023-05-29T07:05:21;6.95;;;2.05;;
19285;SDS011;9776;50.798;6.430;2023-05-29T07:07:47;10.80;;;2.20;;
19285;SDS011;9776;50.798;6.430;2023-05-29T07:10:16;8.13;;;2.20;;
19285;SDS011;9776;50.798;6.430;2023-05-29T07:12:42;7.97;;;1.88;;
19285;SDS011;9776;50.798;6.430;2023-05-29T07:15:09;9.32;;;2.35;;
19285;SDS011;9776;50.798;6.430;2023-05-29T07:17:36;7.35;;;2.20;;
19285;SDS011;9776;50.798;6.430;2023-05-29T07:20:03;11.15;;;2.00;;
19285;SDS011;9776;50.798;6.430;2023-05-29T07:22:32;6.18;;;1.90;;
19285;SDS011;9776;50.798;6.430;2023-05-29T07:24:59;6.45;;;1.65;;
19285;SDS011;9776;50.798;6.430;2023-05-29T07:27:27;6.60;;;1.90;;
19285;SDS011;9776;50.798;6.430;2023-05-29T07:29:54;7.28;;;2.20;;
19285;SDS011;9776;50.798;6.430;2023-05-29T07:32:20;6.65;;;2.20;;
19285;SDS011;9776;50.798;6.430;2023-05-29T07:34:47;7.35;;;2.20;;
19285;SDS011;9776;50.798;6.430;2023-05-29T07:37:15;7.47;;;2.05;;
19285;SDS011;9776;50.798;6.430;2023-05-29T07:39:44;7.32;;;1.85;;
19285;SDS011;9776;50.798;6.430;2023-05-29T07:42:10;6.40;;;1.70;;
19285;SDS011;9776;50.798;6.430;2023-05-29T07:44:38;6.72;;;2.17;;
19285;SDS011;9776;50.798;6.430;2023-05-29T07:47:06;6.35;;;1.90;;
19285;SDS011;9776;50.798;6.430;2023-05-29T07:49:33;7.57;;;2.22;;
19285;SDS011;9776;50.798;6.430;2023-05-29T07:52:00;6.65;;;1.90;;
19285;SDS011;9776;50.798;6.430;2023-05-29T07:54:27;8.50;;;2.10;;
19285;SDS011;9776;50.798;6.430;2023-05-29T07:56:54;7.55;;;2.05;;
19285;SDS011;9776;50.798;6.430;2023-05-29T07:59:21;8.52;;;2.53;;
19285;SDS011;9776;50.798;6.430;2023-05-29T08:01:49;5.53;;;1.88;;
19285;SDS011;9776;50.798;6.430;2023-05-29T08:04:16;6.03;;;1.98;;
19285;SDS011;9776;50.798;6.430;2023-05-29T08:06:43;5.88;;;1.77;;
19285;SDS011;9776;50.798;6.430;2023-05-29T08:09:09;6.30;;;1.73;;
19285;SDS011;9776;50.798;6.430;2023-05-29T08:11:36;7.50;;;2.13;;
19285;SDS011;9776;50.798;6.430;2023-05-29T08:14:03;9.10;;;2.30;;
19285;SDS011;9776;50.798;6.430;2023-05-29T08:16:29;7.70;;;2.03;;
19285;SDS011;9776;50.798;6.430;2023-05-29T08:18:57;11.13;;;2.40;;
19285;SDS011;9776;50.798;6.430;2023-05-29T08:21:24;8.02;;;2.20;;
19285;SDS011;9776;50.798;6.430;2023-05-29T08:23:51;5.95;;;1.73;;
19285;SDS011;9776;50.798;6.430;2023-05-29T08:26:18;5.32;;;1.70;;
19285;SDS011;9776;50.798;6.430;2023-05-29T08:28:44;7.93;;;2.05;;
19285;SDS011;9776;50.798;6.430;2023-05-29T08:31:11;5.20;;;1.95;;
19285;SDS011;9776;50.798;6.430;2023-05-29T08:33:37;7.30;;;1.88;;
19285;SDS011;9776;50.798;6.430;2023-05-29T08:36:06;8.55;;;1.77;;
19285;SDS011;9776;50.798;6.430;2023-05-29T08:38:33;5.60;;;1.55;;
19285;SDS011;9776;50.798;6.430;2023-05-29T08:41:01;8.63;;;1.90;;
19285;SDS011;9776;50.798;6.430;2023-05-29T08:43:30;9.70;;;2.38;;
19285;SDS011;9776;50.798;6.430;2023-05-29T08:45:59;7.28;;;1.95;;
19285;SDS011;9776;50.798;6.430;2023-05-29T08:48:27;6.40;;;1.52;;
19285;SDS011;9776;50.798;6.430;2023-05-29T08:50:56;5.40;;;1.85;;
19285;SDS011;9776;50.798;6.430;2023-05-29T08:53:25;7.03;;;1.77;;
19285;SDS011;9776;50.798;6.430;2023-05-29T08:55:52;7.88;;;1.80;;
19285;SDS011;9776;50.798;6.430;2023-05-29T08:58:20;6.97;;;2.10;;
19285;SDS011;9776;50.798;6.430;2023-05-29T09:00:48;5.13;;;1.75;;
19285;SDS011;9776;50.798;6.430;2023-05-29T09:03:15;7.82;;;2.15;;
19285;SDS011;9776;50.798;6.430;2023-05-29T09:05:45;5.63;;;2.08;;
19285;SDS011;9776;50.798;6.430;2023-05-29T09:08:12;6.38;;;1.63;;
19285;SDS011;9776;50.798;6.430;2023-05-29T09:10:41;7.47;;;1.75;;
19285;SDS011;9776;50.798;6.430;2023-05-29T09:13:08;5.45;;;1.85;;
19285;SDS011;9776;50.798;6.430;2023-05-29T09:15:36;7.13;;;2.00;;
19285;SDS011;9776;50.798;6.430;2023-05-29T09:18:05;5.78;;;1.77;;
19285;SDS011;9776;50.798;6.430;2023-05-29T09:20:33;5.50;;;1.85;;
19285;SDS011;9776;50.798;6.430;2023-05-29T09:23:01;5.93;;;1.70;;
19285;SDS011;9776;50.798;6.430;2023-05-29T09:25:30;5.13;;;1.38;;
19285;SDS011;9776;50.798;6.430;2023-05-29T09:28:00;9.25;;;2.03;;
19285;SDS011;9776;50.798;6.430;2023-05-29T09:30:35;6.47;;;1.55;;
19285;SDS011;9776;50.798;6.430;2023-05-29T09:33:03;7.30;;;1.95;;
19285;SDS011;9776;50.798;6.430;2023-05-29T09:35:34;5.80;;;1.70;;
19285;SDS011;9776;50.798;6.430;2023-05-29T09:38:02;5.45;;;1.67;;
19285;SDS011;9776;50.798;6.430;2023-05-29T09:40:29;5.65;;;1.88;;
19285;SDS011;9776;50.798;6.430;2023-05-29T09:43:02;8.98;;;1.92;;
19285;SDS011;9776;50.798;6.430;2023-05-29T09:45:35;6.35;;;1.75;;
19285;SDS011;9776;50.798;6.430;2023-05-29T09:48:04;6.68;;;1.83;;
19285;SDS011;9776;50.798;6.430;2023-05-29T09:50:31;7.43;;;2.10;;
19285;SDS011;9776;50.798;6.430;2023-05-29T09:52:58;5.88;;;1.90;;
19285;SDS011;9776;50.798;6.430;2023-05-29T09:55:26;5.38;;;1.70;;
19285;SDS011;9776;50.798;6.430;2023-05-29T09:57:54;5.95;;;1.98;;
19285;SDS011;9776;50.798;6.430;2023-05-29T10:00:22;5.00;;;1.88;;
19285;SDS011;9776;50.798;6.430;2023-05-29T10:02:49;6.22;;;2.10;;
19285;SDS011;9776;50.798;6.430;2023-05-29T10:05:16;7.43;;;2.10;;
19285;SDS011;9776;50.798;6.430;2023-05-29T10:07:43;5.38;;;1.70;;
19285;SDS011;9776;50.798;6.430;2023-05-29T10:10:13;5.32;;;2.13;;
19285;SDS011;9776;50.798;6.430;2023-05-29T10:12:42;7.00;;;1.80;;
19285;SDS011;9776;50.798;6.430;2023-05-29T10:15:11;6.43;;;1.88;;
19285;SDS011;9776;50.798;6.430;2023-05-29T10:17:41;6.40;;;1.65;;
19285;SDS011;9776;50.798;6.430;2023-05-29T10:20:15;5.72;;;1.63;;
19285;SDS011;9776;50.798;6.430;2023-05-29T10:22:44;4.97;;;1.70;;
19285;SDS011;9776;50.798;6.430;2023-05-29T10:25:13;7.35;;;1.90;;
19285;SDS011;9776;50.798;6.430;2023-05-29T10:27:40;7.53;;;1.90;;
19285;SDS011;9776;50.798;6.430;2023-05-29T10:30:09;7.43;;;1.85;;
19285;SDS011;9776;50.798;6.430;2023-05-29T10:32:47;5.18;;;1.80;;
19285;SDS011;9776;50.798;6.430;2023-05-29T10:35:27;6.50;;;1.95;;
19285;SDS011;9776;50.798;6.430;2023-05-29T10:38:08;8.38;;;1.95;;
19285;SDS011;9776;50.798;6.430;2023-05-29T10:40:37;4.88;;;1.70;;
19285;SDS011;9776;50.798;6.430;2023-05-29T10:43:04;8.52;;;2.03;;
19285;SDS011;9776;50.798;6.430;2023-05-29T10:45:50;7.10;;;1.92;;
19285;SDS011;9776;50.798;6.430;2023-05-29T10:48:42;4.25;;;1.67;;
19285;SDS011;9776;50.798;6.430;2023-05-29T10:51:24;8.32;;;2.10;;
19285;SDS011;9776;50.798;6.430;2023-05-29T10:53:52;8.82;;;2.10;;
19285;SDS011;9776;50.798;6.430;2023-05-29T10:56:23;7.03;;;1.70;;
19285;SDS011;9776;50.798;6.430;2023-05-29T10:58:54;7.55;;;2.00;;
19285;SDS011;9776;50.798;6.430;2023-05-29T11:01:22;6.05;;;1.80;;
19285;SDS011;9776;50.798;6.430;2023-05-29T11:03:53;5.47;;;1.85;;
19285;SDS011;9776;50.798;6.430;2023-05-29T11:06:40;6.05;;;1.75;;
19285;SDS011;9776;50.798;6.430;2023-05-29T11:09:09;7.40;;;2.38;;
19285;SDS011;9776;50.798;6.430;2023-05-29T11:14:47;7.70;;;1.98;;
19285;SDS011;9776;50.798;6.430;2023-05-29T11:17:42;8.30;;;2.13;;
19285;SDS011;9776;50.798;6.430;2023-05-29T11:20:21;6.10;;;1.83;;
19285;SDS011;9776;50.798;6.430;2023-05-29T11:23:00;5.93;;;1.83;;
19285;SDS011;9776;50.798;6.430;2023-05-29T11:25:32;6.20;;;2.00;;
19285;SDS011;9776;50.798;6.430;2023-05-29T11:28:00;6.32;;;1.92;;
19285;SDS011;9776;50.798;6.430;2023-05-29T11:30:28;6.03;;;1.88;;
19285;SDS011;9776;50.798;6.430;2023-05-29T11:32:55;5.00;;;1.52;;
19285;SDS011;9776;50.798;6.430;2023-05-29T11:35:29;6.40;;;2.15;;
19285;SDS011;9776;50.798;6.430;2023-05-29T11:37:56;6.43;;;2.10;;
19285;SDS011;9776;50.798;6.430;2023-05-29T11:40:23;5.63;;;1.77;;
19285;SDS011;9776;50.798;6.430;2023-05-29T11:42:50;6.43;;;1.90;;
19285;SDS011;9776;50.798;6.430;2023-05-29T11:45:18;9.32;;;2.10;;
19285;SDS011;9776;50.798;6.430;2023-05-29T11:47:52;5.40;;;1.70;;
19285;SDS011;9776;50.798;6.430;2023-05-29T11:50:21;5.95;;;1.80;;
19285;SDS011;9776;50.798;6.430;2023-05-29T11:52:50;5.30;;;1.95;;
19285;SDS011;9776;50.798;6.430;2023-05-29T11:55:17;6.30;;;2.15;;
19285;SDS011;9776;50.798;6.430;2023-05-29T11:57:45;8.18;;;2.20;;
19285;SDS011;9776;50.798;6.430;2023-05-29T12:00:13;4.75;;;2.00;;
19285;SDS011;9776;50.798;6.430;2023-05-29T12:02:40;4.40;;;1.80;;
19285;SDS011;9776;50.798;6.430;2023-05-29T12:05:08;6.60;;;1.73;;
19285;SDS011;9776;50.798;6.430;2023-05-29T12:07:37;5.80;;;1.80;;
19285;SDS011;9776;50.798;6.430;2023-05-29T12:10:12;5.03;;;1.83;;
19285;SDS011;9776;50.798;6.430;2023-05-29T12:12:40;6.57;;;1.80;;
19285;SDS011;9776;50.798;6.430;2023-05-29T12:15:08;6.60;;;2.00;;
19285;SDS011;9776;50.798;6.430;2023-05-29T12:17:35;6.68;;;1.98;;
19285;SDS011;9776;50.798;6.430;2023-05-29T12:20:03;6.78;;;2.22;;
19285;SDS011;9776;50.798;6.430;2023-05-29T12:22:32;6.55;;;1.70;;
19285;SDS011;9776;50.798;6.430;2023-05-29T12:25:03;5.82;;;1.75;;
19285;SDS011;9776;50.798;6.430;2023-05-29T12:27:33;7.55;;;2.08;;
19285;SDS011;9776;50.798;6.430;2023-05-29T12:30:06;7.32;;;2.03;;
19285;SDS011;9776;50.798;6.430;2023-05-29T12:32:36;6.40;;;2.03;;
19285;SDS011;9776;50.798;6.430;2023-05-29T12:35:09;6.40;;;1.90;;
19285;SDS011;9776;50.798;6.430;2023-05-29T12:37:41;6.45;;;2.10;;
19285;SDS011;9776;50.798;6.430;2023-05-29T12:40:09;4.70;;;1.85;;
19285;SDS011;9776;50.798;6.430;2023-05-29T12:42:39;6.88;;;1.85;;
19285;SDS011;9776;50.798;6.430;2023-05-29T12:45:06;6.38;;;1.75;;
19285;SDS011;9776;50.798;6.430;2023-05-29T12:47:34;6.90;;;1.70;;
19285;SDS011;9776;50.798;6.430;2023-05-29T12:50:05;7.22;;;1.77;;
19285;SDS011;9776;50.798;6.430;2023-05-29T12:52:45;5.10;;;1.70;;
19285;SDS011;9776;50.798;6.430;2023-05-29T12:55:12;8.90;;;2.33;;
19285;SDS011;9776;50.798;6.430;2023-05-29T12:57:40;9.00;;;2.05;;
19285;SDS011;9776;50.798;6.430;2023-05-29T13:00:09;8.35;;;2.00;;
19285;SDS011;9776;50.798;6.430;2023-05-29T13:02:37;6.63;;;2.03;;
19285;SDS011;9776;50.798;6.430;2023-05-29T13:05:04;4.40;;;1.70;;
19285;SDS011;9776;50.798;6.430;2023-05-29T13:07:32;4.75;;;1.80;;
19285;SDS011;9776;50.798;6.430;2023-05-29T13:09:59;6.50;;;2.03;;
19285;SDS011;9776;50.798;6.430;2023-05-29T13:12:26;6.15;;;1.80;;
19285;SDS011;9776;50.798;6.430;2023-05-29T13:14:54;8.70;;;2.28;;
19285;SDS011;9776;50.798;6.430;2023-05-29T13:17:21;4.40;;;1.80;;
19285;SDS011;9776;50.798;6.430;2023-05-29T13:19:48;5.25;;;1.95;;
19285;SDS011;9776;50.798;6.430;2023-05-29T13:22:15;4.97;;;2.05;;
19285;SDS011;9776;50.798;6.430;2023-05-29T13:24:41;9.50;;;2.30;;
19285;SDS011;9776;50.798;6.430;2023-05-29T13:27:08;7.05;;;2.13;;
19285;SDS011;9776;50.798;6.430;2023-05-29T13:29:35;7.90;;;1.95;;
19285;SDS011;9776;50.798;6.430;2023-05-29T13:32:03;5.43;;;1.70;;
19285;SDS011;9776;50.798;6.430;2023-05-29T13:34:30;5.82;;;1.90;;
19285;SDS011;9776;50.798;6.430;2023-05-29T13:36:56;6.35;;;2.30;;
19285;SDS011;9776;50.798;6.430;2023-05-29T13:39:25;5.03;;;1.88;;
19285;SDS011;9776;50.798;6.430;2023-05-29T13:41:52;6.72;;;2.17;;
19285;SDS011;9776;50.798;6.430;2023-05-29T13:44:18;9.02;;;1.90;;
19285;SDS011;9776;50.798;6.430;2023-05-29T13:46:45;3.92;;;1.92;;
19285;SDS011;9776;50.798;6.430;2023-05-29T13:49:13;4.40;;;1.90;;
19285;SDS011;9776;50.798;6.430;2023-05-29T13:51:40;7.60;;;2.20;;
19285;SDS011;9776;50.798;6.430;2023-05-29T13:54:06;6.07;;;1.90;;
19285;SDS011;9776;50.798;6.430;2023-05-29T13:56:33;5.78;;;2.08;;
19285;SDS011;9776;50.798;6.430;2023-05-29T13:59:00;6.00;;;1.90;;
19285;SDS011;9776;50.798;6.430;2023-05-29T14:01:30;9.25;;;2.22;;
19285;SDS011;9776;50.798;6.430;2023-05-29T14:03:57;6.97;;;1.80;;
19285;SDS011;9776;50.798;6.430;2023-05-29T14:06:25;7.03;;;2.40;;
19285;SDS011;9776;50.798;6.430;2023-05-29T14:08:52;7.05;;;2.58;;
19285;SDS011;9776;50.798;6.430;2023-05-29T14:11:20;7.65;;;1.83;;
19285;SDS011;9776;50.798;6.430;2023-05-29T14:13:46;8.13;;;2.03;;
19285;SDS011;9776;50.798;6.430;2023-05-29T14:16:13;4.93;;;2.08;;
19285;SDS011;9776;50.798;6.430;2023-05-29T14:18:40;7.43;;;2.28;;
19285;SDS011;9776;50.798;6.430;2023-05-29T14:21:07;5.63;;;1.60;;
19285;SDS011;9776;50.798;6.430;2023-05-29T14:23:36;5.53;;;1.90;;
19285;SDS011;9776;50.798;6.430;2023-05-29T14:26:03;5.32;;;1.92;;
19285;SDS011;9776;50.798;6.430;2023-05-29T14:28:30;8.43;;;2.30;;
19285;SDS011;9776;50.798;6.430;2023-05-29T14:30:56;3.53;;;1.67;;
19285;SDS011;9776;50.798;6.430;2023-05-29T14:33:23;7.40;;;2.10;;
19285;SDS011;9776;50.798;6.430;2023-05-29T14:35:50;7.78;;;1.95;;
19285;SDS011;9776;50.798;6.430;2023-05-29T14:38:17;6.05;;;2.15;;
19285;SDS011;9776;50.798;6.430;2023-05-29T14:40:45;6.65;;;1.90;;
19285;SDS011;9776;50.798;6.430;2023-05-29T14:43:11;5.20;;;2.10;;
19285;SDS011;9776;50.798;6.430;2023-05-29T14:45:38;7.30;;;1.95;;
19285;SDS011;9776;50.798;6.430;2023-05-29T14:48:05;6.40;;;2.13;;
19285;SDS011;9776;50.798;6.430;2023-05-29T14:50:31;4.10;;;2.30;;
19285;SDS011;9776;50.798;6.430;2023-05-29T14:52:58;6.03;;;2.10;;
19285;SDS011;9776;50.798;6.430;2023-05-29T14:55:25;5.60;;;2.10;;
19285;SDS011;9776;50.798;6.430;2023-05-29T14:57:53;5.03;;;2.00;;
19285;SDS011;9776;50.798;6.430;2023-05-29T15:00:19;6.05;;;2.05;;
19285;SDS011;9776;50.798;6.430;2023-05-29T15:02:46;9.85;;;2.05;;
19285;SDS011;9776;50.798;6.430;2023-05-29T15:05:13;6.57;;;1.88;;
19285;SDS011;9776;50.798;6.430;2023-05-29T15:07:39;9.63;;;1.92;;
19285;SDS011;9776;50.798;6.430;2023-05-29T15:10:06;7.05;;;2.38;;